createdAt,value
2022-07-25T00:01:47.282Z,68.37
2022-07-25T00:04:14.858Z,69.73
2022-07-25T00:06:42.657Z,69.40
2022-07-25T00:09:09.825Z,68.80
2022-07-25T00:11:37.105Z,68.26
2022-07-25T00:14:05.259Z,69.61
2022-07-25T00:16:32.701Z,68.56
2022-07-25T00:18:59.612Z,68.61
2022-07-25T00:21:26.483Z,68.93
2022-07-25T00:23:53.274Z,69.76
2022-07-25T00:26:20.307Z,68.64
2022-07-25T00:28:47.095Z,69.94
2022-07-25T00:31:14.211Z,70.32
2022-07-25T00:33:41.403Z,70.77
2022-07-25T00:36:09.160Z,71.62
2022-07-25T00:38:35.997Z,71.76
2022-07-25T00:41:03.968Z,71.81
2022-07-25T00:43:33.828Z,72.62
2022-07-25T00:46:00.859Z,72.13
2022-07-25T00:48:32.039Z,71.57
2022-07-25T00:50:59.754Z,71.93
2022-07-25T00:53:26.887Z,71.82
2022-07-25T00:56:08.415Z,72.02
2022-07-25T00:58:35.481Z,72.63
2022-07-25T01:01:03.001Z,73.29
2022-07-25T01:03:30.154Z,73.42
2022-07-25T01:05:56.961Z,69.79
2022-07-25T01:08:24.117Z,69.98
2022-07-25T01:10:51.170Z,69.74
2022-07-25T01:13:18.204Z,69.11
2022-07-25T01:15:47.853Z,69.60
2022-07-25T01:18:14.670Z,67.85
2022-07-25T01:20:41.473Z,67.37
2022-07-25T01:23:08.562Z,67.11
2022-07-25T01:25:35.549Z,66.75
2022-07-25T01:28:02.380Z,66.24
2022-07-25T01:30:29.114Z,66.34
2022-07-25T01:32:55.977Z,65.54
2022-07-25T01:35:22.859Z,66.63
2022-07-25T01:37:49.816Z,65.93
2022-07-25T01:40:19.413Z,66.28
2022-07-25T01:42:46.194Z,65.65
2022-07-25T01:45:13.612Z,64.51
2022-07-25T01:47:41.439Z,64.13
2022-07-25T01:50:09.027Z,64.70
2022-07-25T01:52:37.211Z,64.17
2022-07-25T01:55:04.247Z,65.34
2022-07-25T01:57:33.116Z,65.12
2022-07-25T02:00:00.261Z,64.36
2022-07-25T02:02:27.245Z,65.16
2022-07-25T02:04:54.686Z,65.09
2022-07-25T02:07:21.611Z,64.55
2022-07-25T02:09:52.122Z,64.67
2022-07-25T02:12:21.774Z,64.68
2022-07-25T02:14:48.572Z,64.86
2022-07-25T02:17:15.372Z,64.53
2022-07-25T02:19:42.438Z,64.53
2022-07-25T02:22:09.487Z,65.02
2022-07-25T02:24:39.014Z,64.30
2022-07-25T02:27:05.889Z,63.89
2022-07-25T02:29:34.230Z,64.40
2022-07-25T02:32:01.013Z,64.83
2022-07-25T02:34:27.926Z,65.13
2022-07-25T02:36:54.811Z,64.75
2022-07-25T02:39:21.916Z,64.79
2022-07-25T02:41:48.712Z,65.18
2022-07-25T02:44:15.424Z,65.34
2022-07-25T02:46:42.138Z,65.96
2022-07-25T02:49:08.994Z,65.81
2022-07-25T02:51:35.895Z,65.75
2022-07-25T02:54:02.678Z,66.47
2022-07-25T02:56:31.859Z,66.84
2022-07-25T02:58:59.227Z,66.70
2022-07-25T03:01:26.030Z,66.46
2022-07-25T03:03:52.834Z,66.69
2022-07-25T03:06:20.120Z,66.77
2022-07-25T03:08:46.989Z,66.81
2022-07-25T03:11:14.307Z,67.21
2022-07-25T03:13:41.124Z,66.43
2022-07-25T03:16:08.421Z,66.15
2022-07-25T03:18:35.315Z,66.58
2022-07-25T03:21:02.578Z,66.38
2022-07-25T03:23:31.142Z,66.44
2022-07-25T03:25:58.164Z,65.86
2022-07-25T03:28:25.438Z,66.06
2022-07-25T03:30:53.174Z,66.04
2022-07-25T03:33:19.858Z,65.97
2022-07-25T03:35:46.662Z,66.62
2022-07-25T03:38:13.763Z,65.59
2022-07-25T03:40:40.732Z,65.55
2022-07-25T03:43:07.474Z,65.81
2022-07-25T03:45:34.701Z,66.06
2022-07-25T03:48:01.492Z,66.30
2022-07-25T03:50:28.520Z,66.38
2022-07-25T03:52:55.607Z,65.65
2022-07-25T03:55:22.599Z,65.85
2022-07-25T03:57:49.476Z,66.32
2022-07-25T04:00:16.347Z,66.50
2022-07-25T04:02:43.475Z,66.26
2022-07-25T04:05:10.471Z,66.36
2022-07-25T04:07:37.577Z,65.58
2022-07-25T04:10:06.233Z,65.95
2022-07-25T04:12:33.555Z,65.41
2022-07-25T04:15:00.509Z,66.46
2022-07-25T04:17:27.386Z,65.52
2022-07-25T04:19:54.076Z,65.94
2022-07-25T04:22:21.791Z,65.78
2022-07-25T04:24:48.507Z,65.54
2022-07-25T04:27:15.255Z,65.26
2022-07-25T04:29:42.038Z,64.57
2022-07-25T04:32:09.113Z,64.67
2022-07-25T04:34:36.277Z,65.50
2022-07-25T04:37:03.091Z,64.82
2022-07-25T04:39:30.034Z,66.90
2022-07-25T04:41:56.840Z,66.38
2022-07-25T04:44:23.609Z,66.92
2022-07-25T04:46:50.357Z,64.92
2022-07-25T04:49:17.396Z,65.38
2022-07-25T04:51:44.155Z,66.53
2022-07-25T04:54:11.022Z,64.47
2022-07-25T04:56:37.806Z,63.87
2022-07-25T04:59:06.608Z,64.62
2022-07-25T05:01:34.180Z,62.00
2022-07-25T05:04:00.998Z,61.50
2022-07-25T05:06:27.655Z,60.78
2022-07-25T05:08:54.603Z,61.19
2022-07-25T05:11:21.446Z,61.08
2022-07-25T05:13:48.278Z,61.19
2022-07-25T05:16:15.315Z,61.23
2022-07-25T05:18:42.093Z,59.19
2022-07-25T05:21:11.695Z,58.68
2022-07-25T05:23:38.539Z,59.09
2022-07-25T05:26:05.339Z,58.15
2022-07-25T05:28:32.074Z,57.39
2022-07-25T05:30:58.831Z,57.72
2022-07-25T05:33:26.657Z,56.46
2022-07-25T05:35:53.408Z,55.70
2022-07-25T05:38:20.627Z,55.19
2022-07-25T05:40:48.054Z,55.36
2022-07-25T05:43:15.026Z,55.04
2022-07-25T05:45:41.826Z,55.05
2022-07-25T05:48:08.669Z,54.03
2022-07-25T05:50:37.409Z,53.91
2022-07-25T05:53:04.162Z,54.30
2022-07-25T05:55:31.120Z,53.92
2022-07-25T05:57:58.345Z,52.45
2022-07-25T06:00:25.584Z,53.28
2022-07-25T06:02:52.686Z,52.53
2022-07-25T06:05:19.569Z,51.54
2022-07-25T06:07:46.481Z,50.58
2022-07-25T06:10:13.139Z,51.29
2022-07-25T06:12:42.685Z,50.36
2022-07-25T06:15:17.761Z,50.56
2022-07-25T06:17:50.038Z,49.51
2022-07-25T06:20:16.829Z,49.51
2022-07-25T06:22:43.703Z,49.43
2022-07-25T06:25:11.004Z,48.67
2022-07-25T06:27:38.756Z,48.41
2022-07-25T06:30:18.671Z,48.34
2022-07-25T06:32:46.527Z,47.90
2022-07-25T06:35:13.326Z,47.18
2022-07-25T06:37:40.044Z,46.90
2022-07-25T06:40:07.874Z,46.65
2022-07-25T06:42:39.472Z,46.23
2022-07-25T06:45:09.773Z,46.55
2022-07-25T06:47:37.625Z,46.94
2022-07-25T06:50:08.732Z,46.17
2022-07-25T06:52:39.069Z,47.63
2022-07-25T06:55:07.195Z,46.50
2022-07-25T06:57:34.264Z,45.89
2022-07-25T07:00:01.123Z,46.22
2022-07-25T07:02:27.816Z,45.76
2022-07-25T07:04:54.822Z,45.47
2022-07-25T07:07:21.562Z,44.82
2022-07-25T07:09:48.592Z,45.01
2022-07-25T07:12:15.270Z,46.07
2022-07-25T07:14:44.434Z,44.82
2022-07-25T07:17:11.109Z,46.22
2022-07-25T07:19:44.123Z,45.66
2022-07-25T07:22:10.851Z,45.06
2022-07-25T07:24:43.898Z,44.90
2022-07-25T07:27:11.926Z,44.20
2022-07-25T07:29:38.690Z,44.15
2022-07-25T07:32:06.679Z,43.63
2022-07-25T07:34:33.731Z,43.69
2022-07-25T07:37:00.435Z,43.26
2022-07-25T07:39:27.306Z,43.74
2022-07-25T07:41:54.205Z,42.59
2022-07-25T07:44:20.925Z,42.78
2022-07-25T07:46:47.691Z,41.75
2022-07-25T07:49:14.534Z,42.42
2022-07-25T07:51:41.250Z,40.05
2022-07-25T07:54:26.541Z,40.61
2022-07-25T07:56:53.286Z,40.95
2022-07-25T07:59:20.198Z,39.92
2022-07-25T08:01:46.948Z,40.11
2022-07-25T08:04:13.981Z,40.50
2022-07-25T08:06:43.042Z,40.39
2022-07-25T08:09:10.261Z,40.46
2022-07-25T08:11:37.266Z,40.15
2022-07-25T08:14:05.536Z,39.70
2022-07-25T08:16:33.098Z,39.53
2022-07-25T08:18:59.946Z,39.84
2022-07-25T08:21:26.755Z,39.38
2022-07-25T08:23:53.399Z,38.55
2022-07-25T08:26:20.284Z,38.82
2022-07-25T08:28:48.391Z,37.61
2022-07-25T08:31:17.046Z,37.93
2022-07-25T08:33:43.743Z,37.71
2022-07-25T08:36:11.654Z,37.71
2022-07-25T08:38:38.402Z,37.42
2022-07-25T08:41:06.158Z,38.16
2022-07-25T08:43:33.458Z,37.79
2022-07-25T08:46:02.100Z,37.23
2022-07-25T08:48:29.831Z,37.00
2022-07-25T08:50:57.904Z,36.89
2022-07-25T08:53:33.977Z,37.40
2022-07-25T08:56:09.744Z,36.94
2022-07-25T08:58:38.258Z,36.52
2022-07-25T09:01:05.127Z,35.67
2022-07-25T09:03:32.870Z,35.62
2022-07-25T09:06:00.677Z,36.08
2022-07-25T09:08:27.582Z,35.21
2022-07-25T09:10:54.459Z,35.21
2022-07-25T09:13:23.615Z,36.10
2022-07-25T09:16:00.480Z,34.08
2022-07-25T09:18:28.243Z,34.91
2022-07-25T09:21:01.655Z,35.25
2022-07-25T09:23:39.188Z,34.79
2022-07-25T09:26:13.421Z,34.25
2022-07-25T09:28:49.643Z,33.86
2022-07-25T09:31:19.122Z,34.05
2022-07-25T09:33:48.754Z,33.53
2022-07-25T09:36:15.626Z,34.06
2022-07-25T09:38:54.867Z,33.79
2022-07-25T09:41:22.157Z,33.32
2022-07-25T09:43:49.172Z,33.85
2022-07-25T09:46:16.101Z,33.26
2022-07-25T09:48:45.778Z,33.06
2022-07-25T09:51:12.674Z,33.70
2022-07-25T09:53:40.483Z,33.83
2022-07-25T09:56:08.475Z,33.69
2022-07-25T09:58:35.419Z,32.18
2022-07-25T10:01:06.018Z,32.60
2022-07-25T10:03:41.781Z,32.09
2022-07-25T10:06:15.230Z,31.73
2022-07-25T10:08:42.268Z,31.51
2022-07-25T10:11:26.313Z,30.62
2022-07-25T10:13:54.913Z,31.13
2022-07-25T10:16:24.423Z,30.87
2022-07-25T10:18:53.953Z,30.78
2022-07-25T10:21:26.777Z,30.42
2022-07-25T10:24:03.019Z,31.59
2022-07-25T10:26:30.975Z,31.32
2022-07-25T10:28:58.822Z,31.68
2022-07-25T10:31:37.829Z,30.33
2022-07-25T10:34:08.766Z,30.92
2022-07-25T10:36:49.651Z,31.50
2022-07-25T10:39:19.360Z,30.01
2022-07-25T10:41:54.422Z,30.29
2022-07-25T10:44:21.507Z,29.61
2022-07-25T10:46:49.356Z,28.94
2022-07-25T10:49:31.006Z,29.15
2022-07-25T10:52:00.906Z,29.59
2022-07-25T10:54:37.516Z,28.77
2022-07-25T10:57:07.185Z,27.90
2022-07-25T10:59:39.036Z,27.42
2022-07-25T11:02:08.590Z,27.14
2022-07-25T11:04:36.360Z,27.35
2022-07-25T11:07:14.834Z,27.41
2022-07-25T11:09:47.358Z,27.24
2022-07-25T11:12:20.602Z,27.99
2022-07-25T11:14:47.667Z,28.12
2022-07-25T11:17:18.790Z,26.95
2022-07-25T11:19:54.333Z,27.36
2022-07-25T11:22:21.706Z,26.64
2022-07-25T11:24:48.553Z,25.90
2022-07-25T11:27:32.577Z,24.89
2022-07-25T11:30:15.939Z,25.29
2022-07-25T11:32:45.321Z,25.75
2022-07-25T11:35:14.051Z,27.31
2022-07-25T11:37:44.059Z,26.54
2022-07-25T11:40:11.358Z,27.56
2022-07-25T11:42:45.230Z,27.26
2022-07-25T11:45:39.043Z,26.53
2022-07-25T11:48:11.559Z,26.68
2022-07-25T11:50:43.555Z,27.28
2022-07-25T11:53:16.112Z,28.85
2022-07-25T11:55:43.497Z,28.25
2022-07-25T11:58:11.603Z,28.34
2022-07-25T12:00:47.286Z,27.26
2022-07-25T12:03:19.847Z,26.22
2022-07-25T12:05:48.646Z,26.06
2022-07-25T12:08:20.369Z,25.36
2022-07-25T12:10:49.351Z,25.27
2022-07-25T12:13:30.411Z,25.49
2022-07-25T12:15:58.213Z,25.10
2022-07-25T12:18:25.279Z,25.10
2022-07-25T12:20:53.291Z,25.92
2022-07-25T12:23:21.746Z,24.88
2022-07-25T12:25:48.455Z,25.32
2022-07-25T12:28:15.243Z,25.75
2022-07-25T12:30:43.639Z,25.23
2022-07-25T12:33:11.408Z,25.33
2022-07-25T12:35:38.481Z,25.51
2022-07-25T12:38:05.433Z,26.28
2022-07-25T12:40:32.255Z,25.75
2022-07-25T12:42:59.506Z,24.83
2022-07-25T12:45:26.467Z,24.32
2022-07-25T12:47:53.599Z,25.11
2022-07-25T12:50:20.432Z,26.10
2022-07-25T12:52:47.221Z,26.70
2022-07-25T12:55:16.966Z,25.94
2022-07-25T12:57:44.320Z,25.28
2022-07-25T13:00:14.459Z,26.46
2022-07-25T13:02:41.687Z,25.94
2022-07-25T13:05:08.674Z,25.11
2022-07-25T13:07:35.503Z,25.76
2022-07-25T13:10:03.707Z,25.83
2022-07-25T13:12:30.595Z,26.32
2022-07-25T13:14:57.829Z,27.29
2022-07-25T13:17:27.583Z,25.42
2022-07-25T13:19:54.994Z,26.36
2022-07-25T13:22:21.627Z,26.52
2022-07-25T13:24:48.362Z,26.25
2022-07-25T13:27:18.593Z,25.92
2022-07-25T13:29:45.435Z,26.61
2022-07-25T13:32:12.222Z,26.45
2022-07-25T13:34:39.546Z,26.07
2022-07-25T13:37:06.310Z,26.15
2022-07-25T13:39:33.778Z,25.85
2022-07-25T13:42:00.482Z,26.06
2022-07-25T13:44:27.145Z,26.40
2022-07-25T13:46:53.953Z,26.18
2022-07-25T13:49:20.740Z,26.29
2022-07-25T13:51:47.677Z,24.53
2022-07-25T13:54:14.480Z,25.00
2022-07-25T13:56:42.480Z,24.97
2022-07-25T13:59:10.079Z,25.20
2022-07-25T14:01:37.469Z,25.31
2022-07-25T14:04:04.225Z,24.62
2022-07-25T14:06:30.901Z,25.48
2022-07-25T14:08:57.646Z,25.72
2022-07-25T14:11:28.672Z,25.16
2022-07-25T14:13:57.544Z,25.09
2022-07-25T14:16:24.257Z,24.76
2022-07-25T14:18:51.177Z,24.76
2022-07-25T14:21:17.839Z,24.48
2022-07-25T14:23:44.518Z,24.42
2022-07-25T14:26:11.266Z,24.29
2022-07-25T14:28:37.965Z,24.25
2022-07-25T14:31:04.696Z,24.41
2022-07-25T14:33:31.353Z,24.34
2022-07-25T14:35:59.032Z,25.13
2022-07-25T14:38:25.734Z,25.37
2022-07-25T14:40:52.352Z,24.81
2022-07-25T14:43:18.981Z,25.61
2022-07-25T14:45:45.634Z,25.97
2022-07-25T14:48:12.284Z,25.97
2022-07-25T14:50:38.950Z,26.81
2022-07-25T14:53:05.601Z,26.08
2022-07-25T14:55:32.239Z,26.02
2022-07-25T14:58:02.439Z,26.36
2022-07-25T15:00:29.851Z,26.32
2022-07-25T15:02:56.859Z,26.78
2022-07-25T15:05:23.645Z,26.22
2022-07-25T15:07:50.315Z,26.74
2022-07-25T15:10:17.386Z,26.86
2022-07-25T15:12:44.093Z,26.42
2022-07-25T15:15:11.570Z,27.21
2022-07-25T15:17:38.942Z,27.06
2022-07-25T15:20:06.238Z,27.06
2022-07-25T15:22:32.848Z,26.73
2022-07-25T15:27:46.249Z,26.65
2022-07-25T15:30:13.261Z,26.58
2022-07-25T15:32:40.320Z,26.37
2022-07-25T15:35:09.474Z,26.64
2022-07-25T15:37:36.374Z,27.24
2022-07-25T15:40:04.064Z,26.17
2022-07-25T15:42:32.160Z,25.97
2022-07-25T15:45:30.363Z,25.58
2022-07-25T15:47:50.709Z,25.54
2022-07-25T15:50:18.740Z,25.15
2022-07-25T15:52:45.592Z,26.05
2022-07-25T15:55:12.334Z,25.20
2022-07-25T15:57:39.136Z,24.95
2022-07-25T16:00:08.601Z,25.02
2022-07-25T16:02:35.921Z,26.10
2022-07-25T16:05:03.963Z,25.25
2022-07-25T16:07:30.699Z,25.74
2022-07-25T16:09:57.340Z,25.62
2022-07-25T16:12:28.456Z,25.62
2022-07-25T16:14:55.640Z,25.30
2022-07-25T16:17:22.432Z,26.33
2022-07-25T16:19:49.253Z,25.94
2022-07-25T16:22:15.890Z,26.47
2022-07-25T16:24:42.711Z,27.06
2022-07-25T16:27:10.390Z,26.10
2022-07-25T16:29:37.452Z,26.55
2022-07-25T16:32:04.790Z,26.98
2022-07-25T16:34:31.933Z,27.33
2022-07-25T16:36:58.984Z,27.18
2022-07-25T16:39:25.618Z,27.95
2022-07-25T16:41:52.404Z,28.56
2022-07-25T16:44:19.081Z,28.42
2022-07-25T16:46:46.070Z,28.42
2022-07-25T16:49:15.403Z,28.41
2022-07-25T16:51:43.135Z,32.21
2022-07-25T16:54:09.886Z,34.20
2022-07-25T16:56:37.263Z,35.54
2022-07-25T16:59:05.920Z,36.57
2022-07-25T17:01:34.921Z,37.10
2022-07-25T17:04:01.860Z,38.36
2022-07-25T17:06:28.893Z,38.52
2022-07-25T17:08:55.729Z,39.00
2022-07-25T17:11:22.607Z,39.81
2022-07-25T17:13:49.353Z,41.69
2022-07-25T17:16:16.275Z,50.72
2022-07-25T17:18:43.057Z,61.36
2022-07-25T17:21:10.648Z,63.72
2022-07-25T17:23:37.305Z,68.68
2022-07-25T17:26:05.372Z,75.67
2022-07-25T17:28:32.316Z,77.14
2022-07-25T17:30:59.131Z,76.48
2022-07-25T17:33:26.037Z,85.19
2022-07-25T17:35:52.878Z,87.80
2022-07-25T17:38:25.438Z,91.75
2022-07-25T17:40:53.263Z,90.41
2022-07-25T17:43:20.030Z,96.52
2022-07-25T17:45:46.977Z,100.00
2022-07-25T17:48:13.767Z,96.35
2022-07-25T17:50:40.475Z,93.02
2022-07-25T17:53:07.521Z,90.44
2022-07-25T17:55:38.728Z,88.59
2022-07-25T17:58:06.085Z,89.37
2022-07-25T18:00:32.823Z,94.28
2022-07-25T18:02:59.646Z,95.38
2022-07-25T18:05:26.958Z,94.15
2022-07-25T18:07:54.063Z,89.47
2022-07-25T18:10:23.782Z,88.59
2022-07-25T18:12:50.669Z,89.55
2022-07-25T18:15:17.459Z,95.21
2022-07-25T18:17:45.963Z,90.12
2022-07-25T18:20:14.536Z,95.06
2022-07-25T18:22:41.551Z,96.67
2022-07-25T18:25:11.518Z,97.36
2022-07-25T18:27:43.058Z,98.48
2022-07-25T18:30:10.755Z,100.00
2022-07-25T18:32:37.868Z,100.00
2022-07-25T18:35:05.410Z,100.00
2022-07-25T18:37:32.254Z,100.00
2022-07-25T18:39:59.099Z,100.00
2022-07-25T18:42:29.695Z,100.00
2022-07-25T18:44:56.728Z,100.00
2022-07-25T18:47:26.303Z,100.00
2022-07-25T18:49:57.332Z,100.00
2022-07-25T18:52:24.307Z,100.00
2022-07-25T18:54:51.052Z,100.00
2022-07-25T18:57:18.029Z,100.00
2022-07-25T18:59:44.947Z,100.00
2022-07-25T19:02:11.828Z,100.00
2022-07-25T19:04:38.570Z,100.00
2022-07-25T19:07:05.381Z,100.00
2022-07-25T19:09:32.116Z,100.00
2022-07-25T19:11:58.907Z,100.00
2022-07-25T19:14:27.422Z,100.00
2022-07-25T19:16:54.888Z,100.00
2022-07-25T19:19:21.627Z,100.00
2022-07-25T19:21:48.925Z,100.00
2022-07-25T19:24:18.630Z,100.00
2022-07-25T19:26:48.426Z,100.00
2022-07-25T19:29:19.085Z,100.00
2022-07-25T19:31:46.343Z,100.00
2022-07-25T19:34:18.142Z,100.00
2022-07-25T19:36:46.198Z,100.00
2022-07-25T19:39:13.774Z,100.00
2022-07-25T19:41:46.202Z,100.00
2022-07-25T19:44:16.202Z,100.00
2022-07-25T19:46:45.883Z,100.00
2022-07-25T19:49:12.977Z,100.00
2022-07-25T19:51:39.827Z,100.00
2022-07-25T19:54:09.020Z,100.00
2022-07-25T19:56:36.110Z,98.93
2022-07-25T19:59:03.249Z,87.23
2022-07-25T20:01:31.798Z,88.25
2022-07-25T20:03:58.576Z,87.71
2022-07-25T20:06:25.301Z,87.93
2022-07-25T20:08:52.024Z,93.03
2022-07-25T20:11:18.937Z,93.23
2022-07-25T20:13:45.723Z,88.92
2022-07-25T20:16:12.525Z,84.51
2022-07-25T20:18:39.320Z,89.38
2022-07-25T20:21:06.526Z,87.18
2022-07-25T20:23:33.340Z,82.09
2022-07-25T20:26:00.947Z,83.07
2022-07-25T20:28:27.817Z,82.25
2022-07-25T20:30:56.073Z,82.54
2022-07-25T20:33:27.042Z,83.47
2022-07-25T20:35:55.065Z,83.29
2022-07-25T20:38:24.128Z,83.62
2022-07-25T20:40:51.544Z,84.19
2022-07-25T20:43:18.883Z,83.63
2022-07-25T20:45:47.473Z,87.50
2022-07-25T20:48:14.503Z,87.23
2022-07-25T20:50:42.616Z,85.69
2022-07-25T20:53:09.513Z,86.10
2022-07-25T20:55:36.921Z,85.85
2022-07-25T20:58:04.675Z,86.26
2022-07-25T21:00:31.718Z,85.75
2022-07-25T21:02:59.307Z,85.63
2022-07-25T21:05:26.671Z,87.97
2022-07-25T21:07:53.715Z,87.34
2022-07-25T21:10:21.070Z,88.76
2022-07-25T21:12:47.970Z,88.67
2022-07-25T21:15:15.206Z,88.47
2022-07-25T21:17:41.980Z,87.76
2022-07-25T21:20:14.246Z,87.01
2022-07-25T21:22:41.770Z,88.97
2022-07-25T21:25:10.587Z,88.24
2022-07-25T21:27:37.732Z,86.74
2022-07-25T21:30:07.061Z,86.43
2022-07-25T21:32:33.841Z,88.48
2022-07-25T21:35:00.584Z,87.13
2022-07-25T21:37:27.257Z,88.46
2022-07-25T21:39:54.220Z,88.91
2022-07-25T21:42:20.978Z,95.81
2022-07-25T21:44:47.710Z,95.49
2022-07-25T21:47:14.478Z,98.64
2022-07-25T21:49:59.956Z,100.00
2022-07-25T21:52:34.480Z,100.00
2022-07-25T21:55:03.869Z,100.00
2022-07-25T21:57:31.105Z,100.00
2022-07-25T21:59:57.932Z,100.00
2022-07-25T22:02:24.715Z,100.00
2022-07-25T22:04:51.521Z,100.00
2022-07-25T22:07:18.623Z,100.00
2022-07-25T22:09:45.637Z,100.00
2022-07-25T22:12:12.658Z,100.00
2022-07-25T22:14:39.360Z,100.00
2022-07-25T22:17:06.151Z,100.00
2022-07-25T22:19:33.385Z,100.00
2022-07-25T22:22:00.256Z,100.00
2022-07-25T22:24:27.010Z,100.00
2022-07-25T22:26:53.862Z,100.00
2022-07-25T22:29:21.220Z,100.00
2022-07-25T22:31:48.822Z,100.00
2022-07-25T22:34:15.754Z,100.00
2022-07-25T22:36:42.696Z,100.00
2022-07-25T22:39:11.162Z,100.00
2022-07-25T22:41:38.512Z,100.00
2022-07-25T22:44:05.522Z,100.00
2022-07-25T22:46:32.629Z,100.00
2022-07-25T22:48:59.843Z,100.00
2022-07-25T22:51:31.227Z,100.00
2022-07-25T22:53:59.083Z,100.00
2022-07-25T22:56:27.060Z,100.00
2022-07-25T22:58:54.570Z,100.00
2022-07-25T23:01:22.128Z,100.00
2022-07-25T23:03:50.289Z,100.00
2022-07-25T23:06:19.126Z,100.00
2022-07-25T23:08:46.800Z,100.00
2022-07-25T23:11:13.566Z,100.00
2022-07-25T23:13:40.399Z,100.00
2022-07-25T23:16:10.194Z,100.00
2022-07-25T23:18:38.107Z,100.00
2022-07-25T23:21:05.294Z,100.00
2022-07-25T23:23:32.068Z,100.00
2022-07-25T23:25:58.973Z,100.00
2022-07-25T23:28:25.978Z,100.00
2022-07-25T23:30:52.720Z,100.00
2022-07-25T23:33:25.126Z,100.00
2022-07-25T23:35:53.137Z,100.00
2022-07-25T23:38:19.900Z,100.00
2022-07-25T23:40:46.887Z,100.00
2022-07-25T23:43:13.658Z,100.00
2022-07-25T23:45:43.694Z,100.00
2022-07-25T23:48:13.100Z,100.00
2022-07-25T23:50:39.735Z,100.00
2022-07-25T23:53:06.532Z,100.00
2022-07-25T23:55:33.204Z,100.00
2022-07-25T23:57:59.869Z,100.00
